createdAt,value
2019-03-26T00:01:43.557Z,92.31
2019-03-26T00:04:14.037Z,92.48
2019-03-26T00:06:43.909Z,92.54
2019-03-26T00:09:13.790Z,92.72
2019-03-26T00:11:43.638Z,92.57
2019-03-26T00:14:13.432Z,92.89
2019-03-26T00:16:43.283Z,92.99
2019-03-26T00:19:13.274Z,93.00
2019-03-26T00:21:43.134Z,92.97
2019-03-26T00:24:12.979Z,93.20
2019-03-26T00:26:42.789Z,93.32
2019-03-26T00:29:12.668Z,93.42
2019-03-26T00:31:42.565Z,94.17
2019-03-26T00:34:19.199Z,94.24
2019-03-26T00:36:43.901Z,94.33
2019-03-26T00:39:13.789Z,94.41
2019-03-26T00:41:43.650Z,94.59
2019-03-26T00:44:13.445Z,94.68
2019-03-26T00:46:43.298Z,94.88
2019-03-26T00:49:13.158Z,94.81
2019-03-26T00:51:43.013Z,95.06
2019-03-26T00:54:13.175Z,95.02
2019-03-26T00:56:43.147Z,94.88
2019-03-26T00:59:12.964Z,94.88
2019-03-26T01:01:42.812Z,94.92
2019-03-26T01:04:12.704Z,94.95
2019-03-26T01:06:42.560Z,94.87
2019-03-26T01:09:12.470Z,94.92
2019-03-26T01:11:42.361Z,94.87
2019-03-26T01:14:12.169Z,94.94
2019-03-26T01:16:42.272Z,95.11
2019-03-26T01:19:12.155Z,95.02
2019-03-26T01:21:42.001Z,95.51
2019-03-26T01:24:12.192Z,95.58
2019-03-26T01:26:42.023Z,95.62
2019-03-26T01:29:11.850Z,95.58
2019-03-26T01:31:41.995Z,95.58
2019-03-26T01:34:11.867Z,95.60
2019-03-26T01:36:41.748Z,95.77
2019-03-26T01:39:11.913Z,95.73
2019-03-26T01:41:41.714Z,95.86
2019-03-26T01:44:11.559Z,95.80
2019-03-26T01:46:41.714Z,95.34
2019-03-26T01:49:11.530Z,94.81
2019-03-26T01:51:41.437Z,94.32
2019-03-26T01:54:11.612Z,93.82
2019-03-26T01:56:41.497Z,93.38
2019-03-26T01:59:11.316Z,91.88
2019-03-26T02:01:41.278Z,90.67
2019-03-26T02:04:11.161Z,90.29
2019-03-26T02:06:41.003Z,89.92
2019-03-26T02:09:10.991Z,89.44
2019-03-26T02:11:40.877Z,88.69
2019-03-26T02:14:10.681Z,88.39
2019-03-26T02:16:40.661Z,88.00
2019-03-26T02:19:10.559Z,87.31
2019-03-26T02:21:40.422Z,87.32
2019-03-26T02:24:10.356Z,87.40
2019-03-26T02:26:40.144Z,86.63
2019-03-26T02:29:09.991Z,86.50
2019-03-26T02:31:40.032Z,86.07
2019-03-26T02:34:09.910Z,86.11
2019-03-26T02:36:39.928Z,85.42
2019-03-26T02:39:09.950Z,85.89
2019-03-26T02:41:39.769Z,85.87
2019-03-26T02:44:09.601Z,85.87
2019-03-26T02:46:39.740Z,85.66
2019-03-26T02:49:09.551Z,85.62
2019-03-26T02:51:39.804Z,85.59
2019-03-26T02:54:09.664Z,85.38
2019-03-26T02:56:39.502Z,85.00
2019-03-26T02:59:09.393Z,84.84
2019-03-26T03:01:39.359Z,84.61
2019-03-26T03:04:09.194Z,84.35
2019-03-26T03:06:39.189Z,84.36
2019-03-26T03:09:09.589Z,84.43
2019-03-26T03:11:39.443Z,84.55
2019-03-26T03:14:09.298Z,85.16
2019-03-26T03:16:39.212Z,85.38
2019-03-26T03:19:09.089Z,85.60
2019-03-26T03:21:39.174Z,85.88
2019-03-26T03:24:09.078Z,86.37
2019-03-26T03:26:39.100Z,86.43
2019-03-26T03:29:09.062Z,86.86
2019-03-26T03:31:39.026Z,86.82
2019-03-26T03:34:08.798Z,87.06
2019-03-26T03:36:38.795Z,86.92
2019-03-26T03:39:08.847Z,86.82
2019-03-26T03:41:38.725Z,86.63
2019-03-26T03:44:08.696Z,86.75
2019-03-26T03:46:38.760Z,86.61
2019-03-26T03:49:08.733Z,86.60
2019-03-26T03:51:40.546Z,86.54
2019-03-26T03:54:11.532Z,86.38
2019-03-26T03:56:42.479Z,86.49
2019-03-26T03:59:12.835Z,86.37
2019-03-26T04:01:42.659Z,86.56
2019-03-26T04:04:12.724Z,86.00
2019-03-26T04:06:42.595Z,85.77
2019-03-26T04:09:12.448Z,85.79
2019-03-26T04:11:42.483Z,85.79
2019-03-26T04:14:12.284Z,85.17
2019-03-26T04:16:42.142Z,85.38
2019-03-26T04:19:12.093Z,85.31
2019-03-26T04:21:41.953Z,85.29
2019-03-26T04:24:11.794Z,84.99
2019-03-26T04:26:41.856Z,85.35
2019-03-26T04:29:11.692Z,85.93
2019-03-26T04:31:41.593Z,86.12
2019-03-26T04:34:11.573Z,86.01
2019-03-26T04:36:41.397Z,85.57
2019-03-26T04:39:11.292Z,85.84
2019-03-26T04:41:41.255Z,85.71
2019-03-26T04:44:11.045Z,85.78
2019-03-26T04:46:40.915Z,86.18
2019-03-26T04:49:10.946Z,86.06
2019-03-26T04:51:40.774Z,85.42
2019-03-26T04:54:10.661Z,85.44
2019-03-26T04:56:40.779Z,85.50
2019-03-26T04:59:10.562Z,85.12
2019-03-26T05:01:40.460Z,84.81
2019-03-26T05:04:10.490Z,84.97
2019-03-26T05:06:40.349Z,84.70
2019-03-26T05:09:10.186Z,84.47
2019-03-26T05:11:40.235Z,84.35
2019-03-26T05:14:10.045Z,83.99
2019-03-26T05:16:39.915Z,83.86
2019-03-26T05:19:09.943Z,83.65
2019-03-26T05:21:39.852Z,83.36
2019-03-26T05:24:09.701Z,83.27
2019-03-26T05:26:39.716Z,82.78
2019-03-26T05:29:09.591Z,82.07
2019-03-26T05:31:39.471Z,81.13
2019-03-26T05:34:09.575Z,80.52
2019-03-26T05:36:50.761Z,80.13
2019-03-26T05:39:11.249Z,79.44
2019-03-26T05:41:41.082Z,78.88
2019-03-26T05:44:10.907Z,79.17
2019-03-26T05:46:40.979Z,77.90
2019-03-26T05:49:10.782Z,78.12
2019-03-26T05:51:40.594Z,77.72
2019-03-26T05:54:10.516Z,74.79
2019-03-26T05:56:40.351Z,73.21
2019-03-26T05:59:10.169Z,71.53
2019-03-26T06:01:40.049Z,70.62
2019-03-26T06:04:09.896Z,68.77
2019-03-26T06:06:39.701Z,67.74
2019-03-26T06:09:09.564Z,65.68
2019-03-26T06:11:39.442Z,62.01
2019-03-26T06:14:09.235Z,58.58
2019-03-26T06:16:39.373Z,56.42
2019-03-26T06:19:09.227Z,52.10
2019-03-26T06:21:39.108Z,50.93
2019-03-26T06:24:09.268Z,49.81
2019-03-26T06:26:39.102Z,49.01
2019-03-26T06:29:08.990Z,49.30
2019-03-26T06:31:39.008Z,48.20
2019-03-26T06:34:10.482Z,45.22
2019-03-26T06:36:40.641Z,45.92
2019-03-26T06:39:10.650Z,44.60
2019-03-26T06:41:40.473Z,44.64
2019-03-26T06:44:10.458Z,42.71
2019-03-26T06:46:40.372Z,43.04
2019-03-26T06:49:10.192Z,44.75
2019-03-26T06:51:40.256Z,43.20
2019-03-26T06:54:10.111Z,42.07
2019-03-26T06:56:39.894Z,41.71
2019-03-26T06:59:09.918Z,43.72
2019-03-26T07:01:39.805Z,42.43
2019-03-26T07:04:09.636Z,41.69
2019-03-26T07:06:39.645Z,41.50
2019-03-26T07:09:09.581Z,41.58
2019-03-26T07:11:39.493Z,40.39
2019-03-26T07:14:09.402Z,41.73
2019-03-26T07:16:39.275Z,41.25
2019-03-26T07:19:09.173Z,40.15
2019-03-26T07:21:49.134Z,41.64
2019-03-26T07:24:10.922Z,41.40
2019-03-26T07:26:40.951Z,43.31
2019-03-26T07:29:10.777Z,44.25
2019-03-26T07:31:40.653Z,43.92
2019-03-26T07:34:10.499Z,44.97
2019-03-26T07:36:40.357Z,45.36
2019-03-26T07:39:10.198Z,46.68
2019-03-26T07:41:40.191Z,45.29
2019-03-26T07:44:10.095Z,45.15
2019-03-26T07:46:39.970Z,43.19
2019-03-26T07:49:09.997Z,42.87
2019-03-26T07:51:39.864Z,41.99
2019-03-26T07:54:09.708Z,42.17
2019-03-26T07:56:39.613Z,41.74
2019-03-26T07:59:09.485Z,42.57
2019-03-26T08:01:39.419Z,41.65
2019-03-26T08:04:12.381Z,40.17
2019-03-26T08:06:40.930Z,38.35
2019-03-26T08:09:13.207Z,37.92
2019-03-26T08:11:43.063Z,36.34
2019-03-26T08:14:12.921Z,32.92
2019-03-26T08:16:42.921Z,32.92
2019-03-26T08:19:12.703Z,31.82
2019-03-26T08:21:42.493Z,30.91
2019-03-26T08:24:12.572Z,31.05
2019-03-26T08:26:42.475Z,30.88
2019-03-26T08:29:12.255Z,28.77
2019-03-26T08:31:42.310Z,28.90
2019-03-26T08:34:12.168Z,28.13
2019-03-26T08:36:42.027Z,29.10
2019-03-26T08:39:12.049Z,29.54
2019-03-26T08:41:41.905Z,28.58
2019-03-26T08:44:11.766Z,28.13
2019-03-26T08:46:41.856Z,28.13
2019-03-26T08:49:14.156Z,27.14
2019-03-26T08:51:43.421Z,27.06
2019-03-26T08:54:13.290Z,27.07
2019-03-26T08:56:43.088Z,27.27
2019-03-26T08:59:13.042Z,30.04
2019-03-26T09:01:42.947Z,33.75
2019-03-26T09:04:12.782Z,32.93
2019-03-26T09:06:42.589Z,34.89
2019-03-26T09:09:12.511Z,37.54
2019-03-26T09:11:42.378Z,37.91
2019-03-26T09:14:12.388Z,42.01
2019-03-26T09:16:42.266Z,36.67
2019-03-26T09:19:12.074Z,31.57
2019-03-26T09:21:42.038Z,32.46
2019-03-26T09:24:11.952Z,30.54
2019-03-26T09:26:41.835Z,29.94
2019-03-26T09:29:11.768Z,27.22
2019-03-26T09:31:41.654Z,28.65
2019-03-26T09:34:11.504Z,26.60
2019-03-26T09:36:41.515Z,26.57
2019-03-26T09:39:11.411Z,27.42
2019-03-26T09:41:41.247Z,25.97
2019-03-26T09:44:11.170Z,27.83
2019-03-26T09:46:41.066Z,26.61
2019-03-26T09:49:10.922Z,25.99
2019-03-26T09:51:41.042Z,24.20
2019-03-26T09:54:11.103Z,23.04
2019-03-26T09:56:40.929Z,23.04
2019-03-26T09:59:11.047Z,23.79
2019-03-26T10:01:40.958Z,24.00
2019-03-26T10:04:10.851Z,24.00
2019-03-26T10:06:40.729Z,22.84
2019-03-26T10:09:10.891Z,24.29
2019-03-26T10:11:40.710Z,21.88
2019-03-26T10:14:10.734Z,21.09
2019-03-26T10:16:40.669Z,23.20
2019-03-26T10:19:10.461Z,22.48
2019-03-26T10:21:40.718Z,22.14
2019-03-26T10:24:10.775Z,24.31
2019-03-26T10:26:40.690Z,24.29
2019-03-26T10:29:28.905Z,22.75
2019-03-26T10:31:42.196Z,21.28
2019-03-26T10:34:12.099Z,21.28
2019-03-26T10:36:42.090Z,21.30
2019-03-26T10:39:12.259Z,21.30
2019-03-26T10:41:42.191Z,23.21
2019-03-26T10:44:12.002Z,25.16
2019-03-26T10:46:44.485Z,23.88
2019-03-26T10:49:13.561Z,24.25
2019-03-26T10:51:43.389Z,21.83
2019-03-26T10:54:13.386Z,20.91
2019-03-26T10:56:43.416Z,21.20
2019-03-26T10:59:13.256Z,23.20
2019-03-26T11:01:43.154Z,25.36
2019-03-26T11:04:13.120Z,25.74
2019-03-26T11:06:42.959Z,24.96
2019-03-26T11:09:21.839Z,21.98
2019-03-26T11:11:44.713Z,22.40
2019-03-26T11:14:14.801Z,22.76
2019-03-26T11:16:44.682Z,22.88
2019-03-26T11:19:14.541Z,25.62
2019-03-26T11:21:44.459Z,28.05
2019-03-26T11:24:14.631Z,27.08
2019-03-26T11:26:44.496Z,26.66
2019-03-26T11:29:14.313Z,26.75
2019-03-26T11:31:44.262Z,27.49
2019-03-26T11:34:14.058Z,27.77
2019-03-26T11:36:43.840Z,28.59
2019-03-26T11:39:13.754Z,33.04
2019-03-26T11:41:43.617Z,35.78
2019-03-26T11:44:13.397Z,34.75
2019-03-26T11:46:43.255Z,36.74
2019-03-26T11:49:13.111Z,37.00
2019-03-26T11:51:42.937Z,34.94
2019-03-26T11:54:12.944Z,37.06
2019-03-26T11:56:42.798Z,36.40
2019-03-26T11:59:12.594Z,35.82
2019-03-26T12:01:42.429Z,36.06
2019-03-26T12:04:12.287Z,36.37
2019-03-26T12:06:42.181Z,38.37
2019-03-26T12:09:12.186Z,37.18
2019-03-26T12:11:42.103Z,34.78
2019-03-26T12:14:11.885Z,32.75
2019-03-26T12:16:41.982Z,34.06
2019-03-26T12:19:11.840Z,35.80
2019-03-26T12:21:41.708Z,34.11
2019-03-26T12:24:11.818Z,32.96
2019-03-26T12:26:41.658Z,34.42
2019-03-26T12:29:11.513Z,32.00
2019-03-26T12:31:41.489Z,34.54
2019-03-26T12:34:11.295Z,35.95
2019-03-26T12:36:41.110Z,33.60
2019-03-26T12:39:11.144Z,34.76
2019-03-26T12:41:41.000Z,34.06
2019-03-26T12:44:10.830Z,32.54
2019-03-26T12:46:40.809Z,33.92
2019-03-26T12:49:10.676Z,33.14
2019-03-26T12:51:40.497Z,35.11
2019-03-26T12:54:10.544Z,32.08
2019-03-26T12:56:40.407Z,32.99
2019-03-26T12:59:10.256Z,30.71
2019-03-26T13:01:40.482Z,30.58
2019-03-26T13:04:12.824Z,32.51
2019-03-26T13:06:42.150Z,33.72
2019-03-26T13:09:12.083Z,34.20
2019-03-26T13:11:41.985Z,33.31
2019-03-26T13:14:12.034Z,36.11
2019-03-26T13:16:41.877Z,37.28
2019-03-26T13:19:11.768Z,36.44
2019-03-26T13:21:41.889Z,34.17
2019-03-26T13:24:11.788Z,31.98
2019-03-26T13:26:41.593Z,37.36
2019-03-26T13:29:11.561Z,36.66
2019-03-26T13:31:41.405Z,35.72
2019-03-26T13:34:11.271Z,37.08
2019-03-26T13:36:41.251Z,33.47
2019-03-26T13:39:11.460Z,34.46
2019-03-26T13:41:41.251Z,35.32
2019-03-26T13:44:11.329Z,39.39
2019-03-26T13:46:41.218Z,35.39
2019-03-26T13:49:11.102Z,39.29
2019-03-26T13:51:41.120Z,38.16
2019-03-26T13:54:11.161Z,35.88
2019-03-26T13:56:40.987Z,35.06
2019-03-26T13:59:10.904Z,35.09
2019-03-26T14:01:40.752Z,38.63
2019-03-26T14:04:10.589Z,35.38
2019-03-26T14:06:40.611Z,37.88
2019-03-26T14:09:10.663Z,34.37
2019-03-26T14:11:40.483Z,33.75
2019-03-26T14:14:10.428Z,34.60
2019-03-26T14:16:40.389Z,35.45
2019-03-26T14:19:10.174Z,36.60
2019-03-26T14:21:39.990Z,36.35
2019-03-26T14:24:13.161Z,34.56
2019-03-26T14:26:41.566Z,37.15
2019-03-26T14:29:11.436Z,33.92
2019-03-26T14:31:41.437Z,34.40
2019-03-26T14:34:11.335Z,34.14
2019-03-26T14:36:41.122Z,35.62
2019-03-26T14:39:11.387Z,34.36
2019-03-26T14:41:41.360Z,34.72
2019-03-26T14:44:11.171Z,34.61
2019-03-26T14:46:41.032Z,33.61
2019-03-26T14:49:10.902Z,34.37
2019-03-26T14:51:40.689Z,36.57
2019-03-26T14:54:10.612Z,35.09
2019-03-26T14:56:40.495Z,35.60
2019-03-26T14:59:10.335Z,32.84
2019-03-26T15:01:40.182Z,34.70
2019-03-26T15:04:10.275Z,32.44
2019-03-26T15:06:40.149Z,33.42
2019-03-26T15:09:10.556Z,33.03
2019-03-26T15:11:40.587Z,33.51
2019-03-26T15:14:10.494Z,32.84
2019-03-26T15:16:40.372Z,32.10
2019-03-26T15:19:10.358Z,31.41
2019-03-26T15:21:40.169Z,32.60
2019-03-26T15:24:10.077Z,32.06
2019-03-26T15:26:40.554Z,31.65
2019-03-26T15:29:10.384Z,32.11
2019-03-26T15:31:40.257Z,32.71
2019-03-26T15:34:10.286Z,32.61
2019-03-26T15:36:40.065Z,32.34
2019-03-26T15:39:10.047Z,32.38
2019-03-26T15:41:40.181Z,32.42
2019-03-26T15:44:10.022Z,34.37
2019-03-26T15:46:39.865Z,33.15
2019-03-26T15:49:09.926Z,33.08
2019-03-26T15:51:39.778Z,34.28
2019-03-26T15:54:09.704Z,34.84
2019-03-26T15:56:39.644Z,35.87
2019-03-26T15:59:09.432Z,36.24
2019-03-26T16:01:39.265Z,37.34
2019-03-26T16:04:09.476Z,38.28
2019-03-26T16:06:39.341Z,38.95
2019-03-26T16:09:10.075Z,35.78
2019-03-26T16:11:39.948Z,36.61
2019-03-26T16:14:09.763Z,35.51
2019-03-26T16:16:39.837Z,34.42
2019-03-26T16:19:09.722Z,34.50
2019-03-26T16:21:39.669Z,36.08
2019-03-26T16:24:09.741Z,37.29
2019-03-26T16:26:39.540Z,37.30
2019-03-26T16:29:09.488Z,37.63
2019-03-26T16:31:39.688Z,37.92
2019-03-26T16:34:09.475Z,39.03
2019-03-26T16:36:39.353Z,40.18
2019-03-26T16:39:09.935Z,41.08
2019-03-26T16:41:48.882Z,41.08
2019-03-26T16:44:11.630Z,42.19
2019-03-26T16:46:41.544Z,42.52
2019-03-26T16:49:11.467Z,43.24
2019-03-26T16:51:41.355Z,43.62
2019-03-26T16:54:11.241Z,43.95
2019-03-26T16:56:41.110Z,43.63
2019-03-26T16:59:10.898Z,43.90
2019-03-26T17:01:40.815Z,43.95
2019-03-26T17:04:10.665Z,45.09
2019-03-26T17:06:40.616Z,45.02
2019-03-26T17:09:10.496Z,45.09
2019-03-26T17:11:40.357Z,45.42
2019-03-26T17:14:10.179Z,46.21
2019-03-26T17:16:40.050Z,48.11
2019-03-26T17:19:09.879Z,49.08
2019-03-26T17:21:39.814Z,51.44
2019-03-26T17:24:09.737Z,51.94
2019-03-26T17:26:39.567Z,52.89
2019-03-26T17:29:09.620Z,53.11
2019-03-26T17:31:39.497Z,53.14
2019-03-26T17:34:09.364Z,52.91
2019-03-26T17:36:39.194Z,53.47
2019-03-26T17:39:09.698Z,54.08
2019-03-26T17:41:39.508Z,55.40
2019-03-26T17:44:09.462Z,57.49
2019-03-26T17:46:39.386Z,57.84
2019-03-26T17:49:09.305Z,57.09
2019-03-26T17:51:40.757Z,58.07
2019-03-26T17:54:10.959Z,58.49
2019-03-26T17:56:40.808Z,59.65
2019-03-26T17:59:10.597Z,60.52
2019-03-26T18:01:40.618Z,58.32
2019-03-26T18:04:10.671Z,57.85
2019-03-26T18:06:40.520Z,59.02
2019-03-26T18:09:10.350Z,59.14
2019-03-26T18:11:40.357Z,59.04
2019-03-26T18:14:10.147Z,59.06
2019-03-26T18:16:39.993Z,58.36
2019-03-26T18:19:09.854Z,58.12
2019-03-26T18:21:50.967Z,58.19
2019-03-26T18:24:11.263Z,59.40
2019-03-26T18:26:41.049Z,60.69
2019-03-26T18:29:11.015Z,60.23
2019-03-26T18:31:40.965Z,62.05
2019-03-26T18:34:10.811Z,61.55
2019-03-26T18:36:40.675Z,61.82
2019-03-26T18:39:10.693Z,62.45
2019-03-26T18:41:40.541Z,60.90
2019-03-26T18:44:10.403Z,61.29
2019-03-26T18:46:40.433Z,60.67
2019-03-26T18:49:10.224Z,60.65
2019-03-26T18:51:40.046Z,60.77
2019-03-26T18:54:10.059Z,61.99
2019-03-26T18:56:39.886Z,62.22
2019-03-26T18:59:09.718Z,62.76
2019-03-26T19:01:39.756Z,62.79
2019-03-26T19:04:09.577Z,63.74
2019-03-26T19:06:39.398Z,63.66
2019-03-26T19:09:09.734Z,63.24
2019-03-26T19:11:39.590Z,63.22
2019-03-26T19:14:09.451Z,63.16
2019-03-26T19:16:39.572Z,62.79
2019-03-26T19:19:09.361Z,63.84
2019-03-26T19:21:39.189Z,63.97
2019-03-26T19:24:09.086Z,64.24
2019-03-26T19:26:38.954Z,64.17
2019-03-26T19:29:08.818Z,65.21
2019-03-26T19:31:38.818Z,65.40
2019-03-26T19:34:08.653Z,65.56
2019-03-26T19:36:38.479Z,66.63
2019-03-26T19:39:09.433Z,66.69
2019-03-26T19:41:39.245Z,66.38
2019-03-26T19:44:09.053Z,66.91
2019-03-26T19:46:39.083Z,66.99
2019-03-26T19:49:08.967Z,67.96
2019-03-26T19:51:38.745Z,68.03
2019-03-26T19:54:08.825Z,67.92
2019-03-26T19:56:38.675Z,68.75
2019-03-26T19:59:08.470Z,69.02
2019-03-26T20:01:38.563Z,70.25
2019-03-26T20:04:08.435Z,70.14
2019-03-26T20:06:38.280Z,70.90
2019-03-26T20:09:08.697Z,71.38
2019-03-26T20:11:38.583Z,71.95
2019-03-26T20:14:08.390Z,72.55
2019-03-26T20:16:42.218Z,72.09
2019-03-26T20:19:09.914Z,71.95
2019-03-26T20:21:40.105Z,72.34
2019-03-26T20:24:09.932Z,72.46
2019-03-26T20:26:39.728Z,72.89
2019-03-26T20:29:09.857Z,73.59
2019-03-26T20:31:39.747Z,73.28
2019-03-26T20:34:09.548Z,73.58
2019-03-26T20:36:39.532Z,73.87
2019-03-26T20:39:09.733Z,74.93
2019-03-26T20:41:39.751Z,75.09
2019-03-26T20:44:09.564Z,75.52
2019-03-26T20:46:39.376Z,76.46
2019-03-26T20:49:09.217Z,76.46
2019-03-26T20:51:39.200Z,76.39
2019-03-26T20:54:09.089Z,76.72
2019-03-26T20:56:40.805Z,77.43
2019-03-26T20:59:11.251Z,77.60
2019-03-26T21:01:41.122Z,78.02
2019-03-26T21:04:10.997Z,78.07
2019-03-26T21:06:40.866Z,78.15
2019-03-26T21:09:10.732Z,77.78
2019-03-26T21:11:40.872Z,77.90
2019-03-26T21:14:10.665Z,78.29
2019-03-26T21:16:40.587Z,79.52
2019-03-26T21:19:10.452Z,79.23
2019-03-26T21:21:40.420Z,79.97
2019-03-26T21:24:10.284Z,80.07
2019-03-26T21:26:40.354Z,80.22
2019-03-26T21:29:10.247Z,80.58
2019-03-26T21:31:40.093Z,80.21
2019-03-26T21:34:10.065Z,81.06
2019-03-26T21:36:39.990Z,80.95
2019-03-26T21:39:09.827Z,79.83
2019-03-26T21:41:39.630Z,79.60
2019-03-26T21:44:09.494Z,79.56
2019-03-26T21:46:39.390Z,79.11
2019-03-26T21:49:09.208Z,79.12
2019-03-26T21:51:39.030Z,79.35
2019-03-26T21:54:08.952Z,78.37
2019-03-26T21:56:38.947Z,76.46
2019-03-26T21:59:08.790Z,76.47
2019-03-26T22:01:38.700Z,75.69
2019-03-26T22:04:08.562Z,75.24
2019-03-26T22:06:38.417Z,75.12
2019-03-26T22:09:08.544Z,75.20
2019-03-26T22:11:49.269Z,76.51
2019-03-26T22:14:17.853Z,76.27
2019-03-26T22:16:41.528Z,76.61
2019-03-26T22:19:11.389Z,76.52
2019-03-26T22:21:41.249Z,76.99
2019-03-26T22:24:11.261Z,76.63
2019-03-26T22:26:41.063Z,76.95
2019-03-26T22:29:10.920Z,77.04
2019-03-26T22:31:40.947Z,77.06
2019-03-26T22:34:10.779Z,77.48
2019-03-26T22:36:40.648Z,77.11
2019-03-26T22:39:10.745Z,78.01
2019-03-26T22:41:40.561Z,77.69
2019-03-26T22:44:10.406Z,77.58
2019-03-26T22:46:40.430Z,77.25
2019-03-26T22:49:10.252Z,76.69
2019-03-26T22:51:40.115Z,77.09
2019-03-26T22:54:10.177Z,77.52
2019-03-26T22:56:40.023Z,77.62
2019-03-26T22:59:09.857Z,77.80
2019-03-26T23:01:39.930Z,77.63
2019-03-26T23:04:09.758Z,77.54
2019-03-26T23:06:39.572Z,77.84
2019-03-26T23:09:09.749Z,78.16
2019-03-26T23:11:39.659Z,78.90
2019-03-26T23:14:09.474Z,79.49
2019-03-26T23:16:39.528Z,79.64
2019-03-26T23:19:09.533Z,78.71
2019-03-26T23:21:39.404Z,78.51
2019-03-26T23:24:09.476Z,78.73
2019-03-26T23:26:39.268Z,79.75
2019-03-26T23:29:09.179Z,79.10
2019-03-26T23:31:39.224Z,79.79
2019-03-26T23:34:09.202Z,79.70
2019-03-26T23:36:39.066Z,79.80
2019-03-26T23:39:09.081Z,80.22
2019-03-26T23:41:39.895Z,79.93
2019-03-26T23:44:11.152Z,80.43
2019-03-26T23:46:40.972Z,80.62
2019-03-26T23:49:10.763Z,80.60
2019-03-26T23:51:40.601Z,80.34
2019-03-26T23:54:10.434Z,80.60
2019-03-26T23:56:40.302Z,80.62
2019-03-26T23:59:10.588Z,80.74
